Accueil
METAR-TAF:

METAR-TAF

Aéroports :

Aéroport de Tiaret - Abdelhafid Boussouf Bou Chekif

Tiaret, Algérie

latitude: 35-15N, longitude: 001-26E, altitude: 1127 m

Observation

Le bulletin a été fait il y a 1 heure et 14 minutes, à 22:00 UTC
Vent 5 kt de sud
Température 5°C
Humidité 87%
Pression 1029 hPa
Visibilité 10 km ou plus
pas de nuages en-dessous de 1500 mètres et pas de cumulonimbus.

METAR: DAOB 212200Z 18005KT CAVOK 05/03 Q1029

Heure: 00:14 (23:14 UTC)

Prévision

Le bulletin a été fait il y a 6 heures et 14 minutes, à 17:00 UTC
Prévision valable du 21 à 18 UTC au 22 à 18 UTC
Vent 2 kt de direction variable
Visibilité 10 km ou plus
Quelques nuages à une hauteur de 2600 ft
Nuages épars à une hauteur de 22000 ft
Probabilité 30%
du 22 à 04 UTC au 22 à 08 UTC
Visibilité: 5000 m
brume

TAF: DAOB 211700Z 2118/2218 VRB02KT 9999 FEW026 SCT220 PROB30 2204/2208 5000 BR

Observations et prévisions météorologiques de plus de 4000 aéroports (messages METAR et TAF).

Les stations disponibles sont représentées par des disques jaunes et rouges sur la carte.

Passer la souris dessus pour voir le nom de la station.

Cliquer dessus pour voir les observations et prévisions météorologiques.

Pour changer de carte: cliquez sur les boutons verts avec une croix noire pour zoomer, sur le bouton vert avec un tiret pour effectuer un zoom arrière, ou sur les flèches vertes pour les cartes adjacentes.


METAR-TAF: